Time;durP1;ratioP1;P1;durP2;ratioP2;P2;SDS_P1;SDS_P2;PMS_P1;PMS_P2;Temp;Humidity;BMP_temperature;BMP_pressure;BME280_temperature;BME280_humidity;BME280_pressure;Samples;Min_cycle;Max_cycle;Signal;HPM_P1;HPM_P2
2022/07/30 10:59:04;;;;;;;2.72;1.38;;;23.90;74.70;;;;;;6304866;22;20053;-89
2022/07/30 11:01:51;;;;;;;2.47;1.70;;;24.00;74.60;;;;;;6311739;22;20014;-88
2022/07/30 11:04:27;;;;;;;4.43;1.60;;;24.10;74.70;;;;;;6313847;22;20010;-88
2022/07/30 11:07:23;;;;;;;2.75;1.45;;;24.10;74.00;;;;;;6312891;22;20035;-88
2022/07/30 11:09:53;;;;;;;4.85;1.83;;;24.20;73.70;;;;;;6313346;22;20070;-88
2022/07/30 11:12:49;;;;;;;3.13;1.70;;;24.20;72.70;;;;;;6313291;22;20072;-86
2022/07/30 11:15:20;;;;;;;3.22;1.65;;;24.20;71.60;;;;;;6312302;22;20034;-88
2022/07/30 11:18:10;;;;;;;3.75;1.48;;;24.20;71.60;;;;;;6314386;22;20062;-87
2022/07/30 11:20:40;;;;;;;3.20;1.30;;;24.20;72.20;;;;;;6314982;22;20056;-88
2022/07/30 11:23:19;;;;;;;3.47;1.67;;;24.30;72.60;;;;;;6345165;22;20005;-87
2022/07/30 11:25:48;;;;;;;2.50;1.40;;;24.40;72.70;;;;;;6318141;22;20428;-88
2022/07/30 11:28:37;;;;;;;2.85;1.50;;;24.40;73.20;;;;;;6318311;22;20445;-88
2022/07/30 11:31:33;;;;;;;2.63;1.75;;;24.50;73.50;;;;;;6318180;22;20041;-89
2022/07/30 11:34:17;;;;;;;2.67;1.60;;;24.50;73.70;;;;;;6289732;22;20002;-88
2022/07/30 11:37:14;;;;;;;2.35;1.67;;;24.60;74.00;;;;;;6323776;22;20052;-88
2022/07/30 11:39:52;;;;;;;3.45;1.90;;;24.60;74.30;;;;;;6285964;22;20003;-88
2022/07/30 11:42:33;;;;;;;2.28;1.70;;;24.60;74.10;;;;;;6357910;22;20029;-89
2022/07/30 11:45:15;;;;;;;3.75;1.65;;;24.70;74.10;;;;;;6329963;22;19994;-87
2022/07/30 11:47:47;;;;;;;3.05;1.80;;;24.80;74.30;;;;;;6330601;22;20007;-87
2022/07/30 11:50:24;;;;;;;3.70;2.03;;;24.80;73.90;;;;;;6332120;22;19999;-88
2022/07/30 11:53:03;;;;;;;2.60;1.60;;;24.90;73.90;;;;;;6328317;22;20003;-89
2022/07/30 11:55:34;;;;;;;2.97;1.77;;;25.00;73.90;;;;;;6316020;22;20409;-88
2022/07/30 11:58:08;;;;;;;2.83;1.70;;;25.00;73.00;;;;;;6311760;22;20002;-88
2022/07/30 12:00:38;;;;;;;4.72;1.90;;;25.00;73.00;;;;;;6341142;22;20294;-88
2022/07/30 12:03:18;;;;;;;2.38;1.48;;;25.10;73.10;;;;;;6314825;22;20365;-88
2022/07/30 12:05:52;;;;;;;2.78;1.67;;;25.10;73.60;;;;;;6313680;22;19999;-89
2022/07/30 12:08:28;;;;;;;2.70;1.80;;;25.10;74.00;;;;;;6288467;22;20015;-87
2022/07/30 12:11:00;;;;;;;5.07;2.00;;;25.10;73.90;;;;;;6313235;22;20035;-87
2022/07/30 12:13:28;;;;;;;3.60;1.52;;;25.20;73.80;;;;;;6313658;22;20033;-88
2022/07/30 12:15:57;;;;;;;2.60;1.70;;;25.20;73.60;;;;;;6340689;22;20005;-88
2022/07/30 12:18:28;;;;;;;2.65;1.60;;;25.30;73.20;;;;;;6315054;22;20003;-90
2022/07/30 12:21:07;;;;;;;2.85;1.70;;;25.30;73.20;;;;;;6291221;22;20002;-88
2022/07/30 12:23:46;;;;;;;2.63;1.45;;;25.40;73.10;;;;;;6327214;22;20007;-88
2022/07/30 12:26:30;;;;;;;3.35;1.77;;;25.50;73.20;;;;;;6336633;22;20002;-89
2022/07/30 12:29:00;;;;;;;1.75;1.52;;;25.60;71.70;;;;;;6337082;22;20013;-89
2022/07/30 12:31:36;;;;;;;1.90;1.33;;;25.70;69.60;;;;;;6337287;22;20003;-89
2022/07/30 12:34:04;;;;;;;3.03;1.40;;;25.60;69.60;;;;;;6337816;22;19999;-90
2022/07/30 12:36:32;;;;;;;2.10;1.35;;;25.70;69.90;;;;;;6305806;22;20066;-89
2022/07/30 12:39:05;;;;;;;1.55;1.25;;;25.80;70.10;;;;;;6343203;22;20428;-89
2022/07/30 12:41:56;;;;;;;1.95;1.50;;;25.80;69.60;;;;;;6342891;22;20327;-88
2022/07/30 12:44:47;;;;;;;2.45;1.27;;;25.90;67.60;;;;;;6292693;22;20003;-89
2022/07/30 15:44:19;;;;;;;;;;;;;;;;;;;;;
2022/07/30 15:47:30;;;;;;;;;;;;;;;;;;;;;
2022/07/30 15:50:31;;;;;;;;;;;;;;;;;;;;;
2022/07/30 15:53:31;;;;;;;;;;;27.00;66.10;;;;;;6209945;23;20072;-91
2022/07/30 15:56:39;;;;;;;;;;;;;;;;;;;;;
2022/07/30 15:59:53;;;;;;;3.35;2.38;;;26.90;66.60;;;;;;6194112;23;20091;-92
2022/07/30 16:02:57;;;;;;;;;;;;;;;;;;;;;
2022/07/30 16:06:10;;;;;;;8.18;6.20;;;27.00;67.60;;;;;;6215307;23;20963;-93
2022/07/30 16:08:56;;;;;;;;;;;;;;;;;;;;;
2022/07/30 16:11:30;;;;;;;5.55;3.17;;;27.00;67.00;;;;;;6195476;23;20079;-91
2022/07/30 16:14:01;;;;;;;4.82;3.00;;;27.00;66.60;;;;;;6168546;23;20013;-91
2022/07/30 16:23:18;;;;;;;3.13;1.83;;;27.10;66.50;;;;;;6187542;22;20350;-90
2022/07/30 16:26:36;;;;;;;;;;;;;;;;;;;;;
2022/07/30 16:33:15;;;;;;;3.28;2.10;;;27.10;67.00;;;;;;6295357;22;20365;-89
2022/07/30 16:36:06;;;;;;;;;;;;;;;;;;;;;
2022/07/30 16:38:52;;;;;;;6.57;2.42;;;27.10;66.20;;;;;;6342411;22;20382;-88
2022/07/30 16:41:51;;;;;;;25.00;3.55;;;27.10;65.90;;;;;;6313232;22;20022;-89
2022/07/30 16:44:34;;;;;;;31.33;4.70;;;27.10;66.10;;;;;;6316008;22;20041;-90
2022/07/30 16:47:39;;;;;;;10.25;3.90;;;27.10;66.20;;;;;;6304729;22;20047;-89
2022/07/30 16:50:36;;;;;;;;;;;;;;;;;;;;;
2022/07/30 16:53:28;;;;;;;5.35;3.78;;;27.10;66.20;;;;;;6359649;22;19983;-90
2022/07/30 16:56:14;;;;;;;13.70;11.30;;;27.10;66.30;;;;;;6363826;22;20010;-91
2022/07/30 16:59:05;;;;;;;19.20;16.48;;;27.00;66.40;;;;;;6339577;22;20018;-90
2022/07/30 17:01:35;;;;;;;8.00;6.55;;;27.00;66.40;;;;;;6339374;22;20007;-91
2022/07/30 17:04:16;;;;;;;6.47;4.68;;;26.90;66.50;;;;;;6320357;22;20023;-91
2022/07/30 17:07:34;;;;;;;;;;;;;;;;;;;;;
2022/07/30 17:10:11;;;;;;;;;;;;;;;;;;;;;
2022/07/30 17:12:55;;;;;;;9.32;8.27;;;26.90;66.70;;;;;;6347405;22;20026;-93
2022/07/30 17:15:45;;;;;;;;;;;;;;;;;;;;;
2022/07/30 17:18:35;;;;;;;6.15;5.00;;;26.80;65.00;;;;;;6346942;22;20094;-92
2022/07/30 17:21:27;;;;;;;8.85;5.82;;;26.80;64.40;;;;;;6319101;22;20003;-93
2022/07/30 17:24:12;;;;;;;;;;;;;;;;;;;;;
2022/07/30 17:27:11;;;;;;;;;;;;;;;;;;;;;
2022/07/30 17:32:48;;;;;;;9.88;7.60;;;26.70;63.90;;;;;;6302240;22;20045;-91
2022/07/30 17:35:36;;;;;;;;;;;;;;;;;;;;;
2022/07/30 17:38:07;;;;;;;5.32;3.58;;;26.60;63.30;;;;;;6330427;22;20031;-91
2022/07/30 17:46:29;;;;;;;5.07;2.28;;;26.40;63.80;;;;;;6304913;22;20011;-90
2022/07/30 17:55:34;;;;;;;;;;;;;;;;;;;;;
2022/07/30 17:58:27;;;;;;;;;;;;;;;;;;;;;
2022/07/30 18:01:24;;;;;;;;;;;;;;;;;;;;;
2022/07/30 18:04:13;;;;;;;5.20;1.98;;;26.00;63.50;;;;;;6343715;22;20022;-91
2022/07/30 18:06:59;;;;;;;3.20;1.83;;;25.90;63.70;;;;;;6315002;22;20062;-91
2022/07/30 18:19:23;;;;;;;3.45;1.80;;;25.90;64.00;;;;;;6325441;22;20336;-90
2022/07/30 18:22:29;;;;;;;;;;;;;;;;;;;;;
2022/07/30 18:25:35;;;;;;;;;;;;;;;;;;;;;
2022/07/30 18:28:28;;;;;;;2.80;1.70;;;25.80;63.80;;;;;;6344609;22;20440;-91
2022/07/30 18:31:35;;;;;;;;;;;;;;;;;;;;;
2022/07/30 18:34:19;;;;;;;;;;;;;;;;;;;;;
2022/07/30 18:37:04;;;;;;;3.75;1.60;;;25.60;64.00;;;;;;6319190;22;20066;-92
2022/07/30 18:39:54;;;;;;;6.78;3.83;;;25.50;63.90;;;;;;6290879;22;20057;-92
2022/07/30 18:42:42;;;;;;;4.18;2.13;;;25.50;64.00;;;;;;6341618;22;20003;-91
2022/07/30 18:45:22;;;;;;;4.32;1.80;;;25.50;64.10;;;;;;6317083;22;20413;-91
2022/07/30 18:48:17;;;;;;;3.78;2.15;;;25.50;64.10;;;;;;6293427;22;20024;-93
2022/07/30 18:54:04;;;;;;;4.82;2.30;;;25.40;64.20;;;;;;6325161;22;20321;-88
2022/07/30 18:56:30;;;;;;;4.38;2.13;;;25.30;64.50;;;;;;6292659;22;20003;-92
2022/07/30 18:59:08;;;;;;;3.88;2.05;;;25.30;64.60;;;;;;6323984;22;20057;-89
2022/07/30 19:01:40;;;;;;;3.42;1.80;;;25.40;64.80;;;;;;6339716;22;20011;-91
2022/07/30 19:04:11;;;;;;;2.42;1.60;;;25.50;64.90;;;;;;6339991;22;20069;-89
2022/07/30 19:06:39;;;;;;;2.20;1.60;;;25.50;64.80;;;;;;6365963;22;20036;-91
2022/07/30 19:09:11;;;;;;;3.08;2.20;;;25.50;65.10;;;;;;6334775;22;20003;-91
2022/07/30 19:11:41;;;;;;;3.35;1.85;;;25.60;65.10;;;;;;6322859;22;20007;-90
2022/07/30 19:14:08;;;;;;;3.45;1.88;;;25.60;65.10;;;;;;6316641;22;20055;-90
2022/07/30 19:16:34;;;;;;;2.25;1.60;;;25.50;65.10;;;;;;6343797;22;20005;-89
